Time;durP1;ratioP1;P1;durP2;ratioP2;P2;SDS_P1;SDS_P2;PMS_P1;PMS_P2;Temp;Humidity;BMP_temperature;BMP_pressure;BME280_temperature;BME280_humidity;BME280_pressure;Samples;Min_cycle;Max_cycle;Signal;HPM_P1;HPM_P2
2021/03/08 00:00:18;;;;;;;16.70;11.68;;;;;;;3.91;62.97;100586.13;5015386;28;20551;-61
2021/03/08 00:02:55;;;;;;;17.33;11.95;;;;;;;3.90;62.89;100584.38;4998552;28;20104;-61
2021/03/08 00:05:23;;;;;;;16.23;12.35;;;;;;;3.92;62.50;100584.44;5015599;28;20041;-61
2021/03/08 00:08:02;;;;;;;14.68;11.38;;;;;;;3.91;63.13;100581.00;5015565;28;20045;-60
2021/03/08 00:10:30;;;;;;;19.58;12.90;;;;;;;3.90;63.16;100586.03;5016552;28;20124;-61
2021/03/08 00:13:01;;;;;;;19.20;12.57;;;;;;;3.90;62.73;100583.47;5016584;28;20038;-61
2021/03/08 00:15:35;;;;;;;19.77;11.88;;;;;;;3.89;62.97;100585.19;4999098;28;20125;-61
2021/03/08 00:18:10;;;;;;;15.63;11.13;;;;;;;3.89;63.19;100580.03;5015518;28;20034;-61
2021/03/08 00:20:45;;;;;;;17.40;12.43;;;;;;;3.88;62.57;100585.97;5016220;28;20079;-61
2021/03/08 00:23:16;;;;;;;17.80;13.63;;;;;;;3.89;62.95;100582.59;5015967;28;20273;-61
2021/03/08 00:25:51;;;;;;;17.25;12.98;;;;;;;3.86;62.49;100577.31;5014984;28;20042;-61
2021/03/08 00:28:27;;;;;;;15.88;12.10;;;;;;;3.86;62.69;100584.16;4999041;28;20401;-61
2021/03/08 00:30:57;;;;;;;16.10;12.68;;;;;;;3.86;62.82;100586.72;5016109;28;20123;-61
2021/03/08 00:33:26;;;;;;;16.30;11.23;;;;;;;3.84;63.32;100584.03;5016109;28;20026;-60
2021/03/08 00:35:56;;;;;;;18.92;12.60;;;;;;;3.82;62.72;100585.66;5016084;28;20100;-61
2021/03/08 00:38:29;;;;;;;18.60;13.65;;;;;;;3.81;62.74;100576.22;5015924;28;20034;-61
2021/03/08 00:41:03;;;;;;;18.98;13.20;;;;;;;3.81;62.99;100582.22;5016177;28;20037;-61
2021/03/08 00:43:28;;;;;;;18.88;12.43;;;;;;;3.80;62.88;100583.00;4998053;28;20093;-61
2021/03/08 00:46:01;;;;;;;17.50;12.43;;;;;;;3.81;63.04;100583.91;4998225;28;20120;-61
2021/03/08 00:48:32;;;;;;;19.50;13.18;;;;;;;3.80;62.45;100579.59;5015881;28;20046;-61
2021/03/08 00:51:03;;;;;;;18.42;12.82;;;;;;;3.78;62.67;100589.75;5015621;28;20054;-61
2021/03/08 00:53:34;;;;;;;16.67;12.07;;;;;;;3.76;62.64;100588.78;4998044;28;20030;-61
2021/03/08 00:56:05;;;;;;;18.67;12.70;;;;;;;3.76;63.00;100593.03;5014484;28;20092;-60
2021/03/08 00:58:37;;;;;;;17.15;13.07;;;;;;;3.75;62.86;100584.44;4998290;28;20072;-60
2021/03/08 01:01:14;;;;;;;17.42;12.73;;;;;;;3.75;62.39;100592.13;4997822;28;20045;-61
2021/03/08 01:03:45;;;;;;;16.88;12.32;;;;;;;3.74;63.01;100589.50;5013796;28;20046;-61
2021/03/08 01:06:19;;;;;;;18.33;13.55;;;;;;;3.74;62.44;100592.94;4997880;28;20045;-61
2021/03/08 01:08:50;;;;;;;18.52;14.10;;;;;;;3.75;62.95;100591.28;5014468;28;20037;-61
2021/03/08 01:11:25;;;;;;;18.17;13.55;;;;;;;3.74;63.36;100587.81;5015446;28;20034;-61
2021/03/08 01:13:53;;;;;;;22.77;14.32;;;;;;;3.73;63.27;100580.94;5015241;28;20095;-61
2021/03/08 01:16:29;;;;;;;19.08;13.75;;;;;;;3.73;62.47;100582.63;5013932;28;20069;-61
2021/03/08 01:19:00;;;;;;;20.00;12.98;;;;;;;3.72;62.70;100581.75;5015242;28;20046;-61
2021/03/08 01:21:36;;;;;;;18.75;13.85;;;;;;;3.71;62.96;100585.13;5015150;28;20042;-61
2021/03/08 01:24:11;;;;;;;20.55;13.25;;;;;;;3.71;62.93;100579.09;5013986;28;20096;-60
2021/03/08 01:26:44;;;;;;;17.70;13.68;;;;;;;3.69;62.80;100578.13;5014064;28;20026;-60
2021/03/08 01:29:17;;;;;;;19.30;13.77;;;;;;;3.69;62.66;100578.13;5015216;28;20042;-61
2021/03/08 01:31:50;;;;;;;18.58;13.25;;;;;;;3.66;63.40;100574.59;5013983;28;20033;-61
2021/03/08 01:34:24;;;;;;;20.00;14.05;;;;;;;3.68;63.06;100578.91;5013541;28;20041;-61
2021/03/08 01:36:54;;;;;;;17.80;13.23;;;;;;;3.68;63.19;100572.13;5013649;28;20038;-60
2021/03/08 01:39:27;;;;;;;18.65;13.00;;;;;;;3.67;62.41;100570.38;5014735;28;20044;-60
2021/03/08 01:42:01;;;;;;;19.70;14.30;;;;;;;3.66;62.80;100568.59;5013962;28;20504;-60
2021/03/08 01:44:29;;;;;;;19.23;13.93;;;;;;;3.65;62.53;100571.97;5014747;28;20137;-60
2021/03/08 01:46:59;;;;;;;23.95;14.93;;;;;;;3.64;63.27;100568.53;5013823;28;20084;-61
2021/03/08 01:49:33;;;;;;;20.38;13.90;;;;;;;3.64;62.71;100571.09;5013342;28;20135;-61
2021/03/08 01:52:02;;;;;;;18.50;13.20;;;;;;;3.64;62.83;100573.66;5013451;28;20071;-61
2021/03/08 01:54:34;;;;;;;23.17;13.90;;;;;;;3.66;62.86;100581.41;5012965;28;20069;-60
2021/03/08 01:57:06;;;;;;;21.65;14.07;;;;;;;3.65;63.01;100570.28;4996696;28;20091;-61
2021/03/08 01:59:37;;;;;;;18.17;13.27;;;;;;;3.66;62.55;100571.16;5014151;28;20064;-61
2021/03/08 02:02:10;;;;;;;17.73;13.25;;;;;;;3.66;63.33;100568.59;5012200;28;20100;-61
2021/03/08 02:04:40;;;;;;;19.85;14.30;;;;;;;3.66;62.92;100561.78;5014549;28;20069;-61
2021/03/08 02:07:09;;;;;;;19.63;13.23;;;;;;;3.66;62.97;100564.34;5013349;28;20501;-61
2021/03/08 02:09:40;;;;;;;19.33;13.10;;;;;;;3.66;63.40;100559.22;5013066;28;20509;-61
2021/03/08 02:12:27;;;;;;;18.58;14.13;;;;;;;3.65;62.87;100554.00;5013355;28;20030;-61
2021/03/08 02:15:16;;;;;;;20.33;13.40;;;;;;;3.65;63.26;100552.34;5013729;28;20045;-61
2021/03/08 02:18:10;;;;;;;19.50;13.77;;;;;;;3.64;63.44;100554.81;5013276;28;20034;-61
2021/03/08 02:20:39;;;;;;;;;;;;;;;3.61;63.32;100545.28;5009381;28;20054;-61
2021/03/08 02:23:25;;;;;;;20.10;13.75;;;;;;;3.61;63.39;100549.53;4996819;28;20071;-61
2021/03/08 02:26:20;;;;;;;19.92;13.35;;;;;;;3.62;62.77;100543.59;5014075;28;20129;-61
2021/03/08 02:28:45;;;;;;;23.60;15.02;;;;;;;3.60;63.03;100540.97;5012841;28;20457;-61
2021/03/08 02:31:16;;;;;;;22.90;14.10;;;;;;;3.62;63.13;100546.16;5012559;28;20054;-60
2021/03/08 02:33:58;;;;;;;22.35;13.65;;;;;;;3.60;62.85;100543.53;5012203;28;20038;-61
2021/03/08 02:36:35;;;;;;;19.33;13.52;;;;;;;3.61;63.03;100545.28;5012593;28;20501;-61
2021/03/08 02:39:18;;;;;;;19.65;13.98;;;;;;;3.59;62.96;100540.88;5013830;28;20038;-60
2021/03/08 02:41:50;;;;;;;20.35;13.77;;;;;;;3.60;62.93;100535.84;5013788;28;20481;-61
2021/03/08 02:44:25;;;;;;;20.98;13.80;;;;;;;3.61;62.99;100539.25;5013948;28;20033;-61
2021/03/08 02:47:03;;;;;;;22.00;14.32;;;;;;;3.61;63.04;100529.91;5012971;28;20033;-60
2021/03/08 02:49:36;;;;;;;19.73;13.50;;;;;;;3.60;63.14;100533.28;5012689;28;20128;-60
2021/03/08 02:52:19;;;;;;;19.48;13.43;;;;;;;3.60;62.67;100529.81;5012507;28;20477;-60
2021/03/08 02:54:57;;;;;;;19.40;14.85;;;;;;;3.59;63.14;100533.19;5012803;28;20038;-60
2021/03/08 02:57:34;;;;;;;21.35;13.15;;;;;;;3.57;63.18;100532.25;4996160;28;20042;-61
2021/03/08 03:00:11;;;;;;;19.58;14.40;;;;;;;3.58;62.84;100534.88;5012482;28;20033;-61
2021/03/08 03:02:45;;;;;;;20.10;14.20;;;;;;;3.58;62.74;100527.19;4995809;28;20038;-61
2021/03/08 03:05:19;;;;;;;18.02;13.07;;;;;;;3.57;62.76;100527.97;5012272;28;20044;-61
2021/03/08 03:07:53;;;;;;;20.20;13.52;;;;;;;3.57;62.96;100527.13;5013762;28;20034;-61
2021/03/08 03:10:27;;;;;;;21.33;13.95;;;;;;;3.57;63.19;100533.09;5011984;28;20040;-61
2021/03/08 03:13:01;;;;;;;22.88;14.35;;;;;;;3.55;63.35;100527.00;5012446;28;20165;-61
2021/03/08 03:15:32;;;;;;;;;;;;;;;3.55;62.71;100533.84;5016864;28;20117;-60
2021/03/08 03:18:08;;;;;;;20.80;14.60;;;;;;;3.54;62.59;100532.94;5016770;28;19921;-60
2021/03/08 03:20:38;;;;;;;17.90;13.20;;;;;;;3.54;62.76;100532.06;5016098;28;20485;-60
2021/03/08 03:23:09;;;;;;;19.92;13.35;;;;;;;3.54;63.13;100532.94;5016181;28;20363;-61
2021/03/08 03:25:41;;;;;;;24.45;15.77;;;;;;;3.54;63.29;100532.94;5016108;28;20046;-61
2021/03/08 03:28:13;;;;;;;17.88;12.90;;;;;;;3.54;62.75;100520.13;5017052;28;20038;-61
2021/03/08 03:30:48;;;;;;;23.08;14.73;;;;;;;3.55;63.05;100516.75;5015892;28;20042;-60
2021/03/08 03:33:22;;;;;;;21.95;15.52;;;;;;;3.54;62.86;100521.81;5016248;28;20389;-60
2021/03/08 03:35:51;;;;;;;19.42;14.55;;;;;;;3.54;63.34;100517.56;5017097;28;20040;-61
2021/03/08 03:38:28;;;;;;;20.85;15.38;;;;;;;3.54;63.22;100511.56;5016977;28;20038;-61
2021/03/08 03:40:59;;;;;;;22.70;15.75;;;;;;;3.54;63.29;100521.81;4999521;28;20046;-61
2021/03/08 03:43:27;;;;;;;19.63;14.38;;;;;;;3.54;63.00;100532.06;5016785;28;20040;-61
2021/03/08 03:46:06;;;;;;;20.20;14.43;;;;;;;3.54;63.07;100529.50;5017279;28;20050;-61
2021/03/08 03:48:46;;;;;;;27.33;16.08;;;;;;;3.54;63.45;100527.81;5015458;28;20133;-61
2021/03/08 03:51:16;;;;;;;23.60;15.77;;;;;;;3.55;62.77;100526.16;5016053;28;20367;-60
2021/03/08 03:53:47;;;;;;;21.65;15.13;;;;;;;3.55;62.97;100533.84;5015985;28;20042;-61
2021/03/08 03:56:21;;;;;;;27.10;16.83;;;;;;;3.55;63.10;100552.66;5015859;28;20048;-60
2021/03/08 03:59:06;;;;;;;26.00;15.95;;;;;;;3.55;63.19;100549.22;5015304;28;20038;-60
2021/03/08 04:01:43;;;;;;;21.25;15.68;;;;;;;3.54;63.19;100552.56;5015605;28;20141;-61
2021/03/08 04:04:20;;;;;;;21.73;15.02;;;;;;;3.53;62.71;100549.13;4982822;28;20041;-61
2021/03/08 04:07:00;;;;;;;24.45;17.27;;;;;;;3.53;63.37;100548.25;4999051;28;20041;-61
2021/03/08 04:09:32;;;;;;;21.05;14.82;;;;;;;3.54;63.35;100557.72;4998876;28;20559;-60
2021/03/08 04:12:10;;;;;;;21.75;15.20;;;;;;;3.54;63.36;100555.16;5016914;28;20064;-61
2021/03/08 04:14:48;;;;;;;25.10;17.25;;;;;;;3.54;63.25;100557.72;4982744;28;20030;-60
2021/03/08 04:17:18;;;;;;;20.30;14.52;;;;;;;3.51;63.12;100555.84;4982398;28;20099;-61
2021/03/08 04:19:47;;;;;;;24.35;15.20;;;;;;;3.52;63.13;100555.03;5016282;28;20034;-61
2021/03/08 04:22:18;;;;;;;22.23;14.43;;;;;;;3.53;63.55;100563.63;5016532;28;20491;-61
2021/03/08 04:24:48;;;;;;;20.73;14.20;;;;;;;3.52;63.15;100562.72;4998502;28;20038;-60
2021/03/08 04:27:17;;;;;;;19.55;14.60;;;;;;;3.53;62.89;100566.19;5015943;28;20171;-61
2021/03/08 04:29:50;;;;;;;26.50;15.68;;;;;;;3.52;62.90;100565.28;4998472;28;20413;-61
2021/03/08 04:32:26;;;;;;;24.42;16.63;;;;;;;3.51;63.38;100571.22;5016354;28;20045;-61
2021/03/08 04:35:04;;;;;;;23.65;15.88;;;;;;;3.50;63.11;100569.50;4998591;28;20038;-61
2021/03/08 04:37:40;;;;;;;24.67;15.52;;;;;;;3.50;63.75;100569.50;5016335;28;20061;-60
2021/03/08 04:40:15;;;;;;;23.75;16.40;;;;;;;3.49;63.00;100568.59;4998325;28;20041;-61
2021/03/08 04:42:45;;;;;;;20.38;15.05;;;;;;;3.48;62.78;100566.81;4998385;28;20100;-61
2021/03/08 04:45:12;;;;;;;23.60;16.25;;;;;;;3.51;63.10;100571.22;5015986;28;20060;-60
2021/03/08 04:47:45;;;;;;;26.02;17.10;;;;;;;3.50;63.28;100582.31;4998032;28;20541;-60
2021/03/08 04:50:15;;;;;;;24.10;16.05;;;;;;;3.50;63.43;100574.63;4981916;28;20127;-61
2021/03/08 04:52:55;;;;;;;26.88;17.38;;;;;;;3.49;63.23;100572.84;4982095;28;20038;-61
2021/03/08 04:55:32;;;;;;;27.15;17.25;;;;;;;3.49;63.28;100577.97;4998159;28;20036;-60
2021/03/08 04:58:02;;;;;;;26.33;17.05;;;;;;;3.48;63.23;100568.53;5015802;28;20034;-61
2021/03/08 05:00:33;;;;;;;26.20;18.50;;;;;;;3.50;63.45;100572.06;4982064;28;20068;-61
2021/03/08 05:03:06;;;;;;;25.05;16.48;;;;;;;3.48;63.24;100571.94;5005397;28;20124;-61
2021/03/08 05:05:38;;;;;;;;;;;;;;;3.46;63.08;100581.22;5016029;28;20084;-61
2021/03/08 05:08:14;;;;;;;24.08;15.23;;;;;;;3.46;63.14;100576.09;5015331;28;19917;-61
2021/03/08 05:10:45;;;;;;;25.90;16.98;;;;;;;3.45;63.32;100576.91;5014030;28;20046;-61
2021/03/08 05:13:15;;;;;;;23.40;16.60;;;;;;;3.45;63.51;100581.16;5015332;28;20031;-60
2021/03/08 05:15:46;;;;;;;25.50;15.93;;;;;;;3.45;63.83;100578.59;5015235;28;20054;-60
2021/03/08 05:18:21;;;;;;;26.75;16.80;;;;;;;3.45;63.08;100582.03;4998005;28;20072;-61
2021/03/08 05:20:55;;;;;;;25.63;17.17;;;;;;;3.44;63.33;100580.25;5013557;28;20037;-60
2021/03/08 05:23:23;;;;;;;22.33;15.82;;;;;;;3.44;63.38;100577.69;5013804;28;20034;-60
2021/03/08 05:25:56;;;;;;;27.08;16.35;;;;;;;3.44;63.33;100584.53;5015163;28;20033;-61
2021/03/08 05:28:24;;;;;;;30.85;16.75;;;;;;;3.44;63.29;100585.38;5013982;28;20034;-61
2021/03/08 05:31:02;;;;;;;28.80;17.48;;;;;;;3.45;63.52;100583.72;5014893;28;20040;-61
2021/03/08 05:33:38;;;;;;;34.30;20.35;;;;;;;3.43;63.53;100578.50;4998027;28;20072;-60
2021/03/08 05:36:07;;;;;;;33.00;19.83;;;;;;;3.42;63.18;100579.34;5014569;28;20122;-61
2021/03/08 05:38:42;;;;;;;29.98;18.83;;;;;;;3.42;63.89;100581.88;5013695;28;20398;-60
2021/03/08 05:41:25;;;;;;;41.35;20.13;;;;;;;3.42;63.25;100575.88;5014769;28;20030;-61
2021/03/08 05:44:03;;;;;;;37.92;20.42;;;;;;;3.42;63.33;100576.78;5013872;28;20478;-61
2021/03/08 05:47:01;;;;;;;32.72;20.95;;;;;;;3.41;63.45;100576.66;5013276;28;20489;-60
2021/03/08 05:50:01;;;;;;;33.00;20.80;;;;;;;3.43;63.66;100580.19;5013426;28;20045;-61
2021/03/08 05:52:47;;;;;;;35.38;22.17;;;;;;;3.41;63.41;100585.25;4996558;28;20029;-61
2021/03/08 05:55:26;;;;;;;36.58;22.90;;;;;;;3.41;63.39;100579.22;5014528;28;20125;-60
2021/03/08 05:58:01;;;;;;;31.02;20.23;;;;;;;3.42;63.62;100578.44;5014565;28;20038;-61
2021/03/08 06:01:07;;;;;;;38.88;20.98;;;;;;;3.40;63.90;100580.03;5013098;28;20099;-60
2021/03/08 06:04:00;;;;;;;34.83;20.98;;;;;;;3.41;63.58;100585.25;4979536;28;20041;-60
2021/03/08 06:06:48;;;;;;;34.05;20.50;;;;;;;3.39;63.17;100586.84;5014495;28;20117;-61
2021/03/08 06:09:28;;;;;;;42.55;22.30;;;;;;;3.40;63.54;100595.41;5014276;28;20077;-60
2021/03/08 06:12:08;;;;;;;35.25;22.42;;;;;;;3.39;63.44;100594.53;5014512;28;20065;-60
2021/03/08 06:14:44;;;;;;;40.28;22.65;;;;;;;3.38;63.42;100591.88;4980294;28;20088;-61
2021/03/08 06:17:17;;;;;;;34.10;22.95;;;;;;;3.38;63.73;100597.00;4996930;28;20030;-60
2021/03/08 06:19:52;;;;;;;35.55;22.17;;;;;;;3.37;63.47;100601.25;5014483;28;20117;-60
2021/03/08 06:22:21;;;;;;;35.40;22.05;;;;;;;3.37;63.53;100595.22;5014482;28;20029;-60
2021/03/08 06:24:57;;;;;;;36.58;23.00;;;;;;;3.35;63.67;100601.16;5014035;28;20088;-61
2021/03/08 06:27:28;;;;;;;45.03;25.80;;;;;;;3.37;63.85;100610.59;4996500;28;20029;-60
2021/03/08 06:29:59;;;;;;;38.95;23.67;;;;;;;3.35;63.30;100607.97;5014252;28;20128;-60
2021/03/08 06:32:32;;;;;;;37.97;23.33;;;;;;;3.34;63.51;100612.22;5014143;28;20041;-60
2021/03/08 06:34:58;;;;;;;35.67;21.45;;;;;;;3.34;63.87;100613.91;5014161;28;20042;-60
2021/03/08 06:37:32;;;;;;;37.53;21.52;;;;;;;3.34;63.61;100614.78;5013841;28;20084;-60
2021/03/08 06:40:04;;;;;;;34.63;22.23;;;;;;;3.34;63.76;100613.91;4996272;28;20038;-60
2021/03/08 06:42:35;;;;;;;32.20;20.02;;;;;;;3.34;63.86;100607.09;4996773;28;20038;-60
2021/03/08 06:45:06;;;;;;;31.35;19.92;;;;;;;3.35;63.38;100610.53;4995838;28;20053;-61
2021/03/08 06:47:40;;;;;;;35.00;19.45;;;;;;;3.34;63.93;100619.91;4996035;28;20062;-61
2021/03/08 06:50:12;;;;;;;31.73;19.20;;;;;;;3.34;63.67;100621.59;5013823;28;20049;-61
2021/03/08 06:52:49;;;;;;;27.40;19.38;;;;;;;3.33;64.05;100625.84;4996344;28;20038;-61
2021/03/08 06:55:23;;;;;;;30.52;18.42;;;;;;;3.33;63.65;100632.63;5014085;28;20045;-61
2021/03/08 06:57:53;;;;;;;28.98;18.35;;;;;;;3.34;63.60;100632.72;5013856;28;20038;-60
2021/03/08 07:00:33;;;;;;;30.00;17.35;;;;;;;3.35;64.10;100638.72;4996285;28;20187;-61
2021/03/08 07:02:58;;;;;;;29.63;18.10;;;;;;;3.33;63.96;100636.09;5003393;28;20046;-61
2021/03/08 07:05:31;;;;;;;29.95;18.13;;;;;;;3.35;64.13;100646.41;5013794;28;20071;-60
2021/03/08 07:08:03;;;;;;;27.42;17.60;;;;;;;3.35;64.12;100644.72;5009404;28;20041;-61
2021/03/08 07:10:45;;;;;;;27.08;16.73;;;;;;;3.33;63.98;100648.91;5012449;28;20045;-60
2021/03/08 07:13:15;;;;;;;27.67;18.50;;;;;;;3.35;63.97;100656.66;5012218;28;20034;-60
2021/03/08 07:16:02;;;;;;;28.92;18.88;;;;;;;3.34;63.68;100655.78;5013758;28;20041;-61
2021/03/08 07:18:31;;;;;;;36.35;20.50;;;;;;;3.35;63.54;100657.53;5012505;28;20141;-60
2021/03/08 07:21:17;;;;;;;30.40;19.33;;;;;;;3.35;63.43;100660.09;5012280;28;20401;-60
2021/03/08 07:23:50;;;;;;;29.67;21.30;;;;;;;3.35;63.59;100654.09;5012294;28;20125;-61
2021/03/08 07:26:28;;;;;;;30.90;19.83;;;;;;;3.35;64.11;100662.66;5013430;28;20038;-60
2021/03/08 07:29:19;;;;;;;30.33;19.20;;;;;;;3.35;63.65;100657.53;5013603;28;20041;-61
2021/03/08 07:31:54;;;;;;;41.38;22.70;;;;;;;3.37;64.15;100664.41;5012319;28;20529;-61
2021/03/08 07:34:22;;;;;;;31.17;20.52;;;;;;;3.38;63.39;100664.53;5012134;28;20092;-61
2021/03/08 07:36:59;;;;;;;41.88;21.55;;;;;;;3.38;63.95;100668.75;5013308;28;20552;-61
2021/03/08 07:39:29;;;;;;;31.45;21.83;;;;;;;3.38;63.97;100664.53;5013529;28;20117;-60
2021/03/08 07:42:09;;;;;;;34.78;22.92;;;;;;;3.38;63.67;100667.09;5013240;28;20034;-61
2021/03/08 07:44:51;;;;;;;36.42;22.85;;;;;;;3.40;63.92;100664.59;4995743;28;20064;-60
2021/03/08 07:47:27;;;;;;;40.83;26.52;;;;;;;3.41;63.94;100676.59;5012509;28;20029;-60
2021/03/08 07:49:55;;;;;;;43.58;26.02;;;;;;;3.41;63.83;100668.91;5012098;28;20037;-61
2021/03/08 07:52:39;;;;;;;40.30;25.98;;;;;;;3.40;63.66;100662.94;5012050;28;20054;-61
2021/03/08 07:55:07;;;;;;;41.83;24.15;;;;;;;3.41;63.77;100666.34;4995616;28;20042;-62
2021/03/08 07:57:35;;;;;;;38.42;24.10;;;;;;;3.41;63.74;100668.91;5012361;28;20573;-61
2021/03/08 08:00:09;;;;;;;40.40;25.38;;;;;;;3.42;63.89;100670.69;5013297;28;20038;-61
2021/03/08 08:02:40;;;;;;;44.08;25.98;;;;;;;3.41;63.86;100677.50;5015418;28;20092;-61
2021/03/08 08:05:13;;;;;;;42.72;26.33;;;;;;;3.41;63.78;100674.03;5016622;28;20041;-60
2021/03/08 08:07:48;;;;;;;39.75;25.42;;;;;;;3.41;63.94;100668.91;5015143;28;20476;-61
2021/03/08 08:10:22;;;;;;;42.55;25.65;;;;;;;3.43;64.03;100672.47;5016552;28;20037;-61
2021/03/08 08:13:09;;;;;;;42.85;26.10;;;;;;;3.44;64.22;100664.84;5016672;28;20034;-60
2021/03/08 08:15:37;;;;;;;43.08;26.60;;;;;;;3.44;63.67;100667.41;5015257;28;20034;-61
2021/03/08 08:18:12;;;;;;;46.20;27.25;;;;;;;3.47;64.23;100664.16;5015213;28;20092;-62
2021/03/08 08:20:42;;;;;;;47.15;28.45;;;;;;;3.47;64.15;100670.13;5015497;28;20497;-61
2021/03/08 08:23:08;;;;;;;43.95;27.95;;;;;;;3.49;63.78;100663.41;4998786;28;20064;-61
2021/03/08 08:25:40;;;;;;;47.70;29.95;;;;;;;3.51;63.97;100666.06;5016183;28;20050;-60
2021/03/08 08:28:11;;;;;;;43.97;27.75;;;;;;;3.52;63.68;100661.81;5016440;28;20046;-60
2021/03/08 08:30:39;;;;;;;45.55;28.63;;;;;;;3.54;63.73;100666.22;5014990;28;20061;-60
2021/03/08 08:33:25;;;;;;;45.08;26.77;;;;;;;3.54;64.07;100661.09;5016622;28;20042;-60
2021/03/08 08:36:11;;;;;;;44.75;26.08;;;;;;;3.55;63.96;100659.44;5016041;28;20109;-60
2021/03/08 08:38:42;;;;;;;46.83;28.05;;;;;;;3.56;64.13;100663.75;5016185;28;20034;-60
2021/03/08 08:41:24;;;;;;;46.67;27.77;;;;;;;3.57;63.76;100660.41;5014724;28;20037;-61
2021/03/08 08:44:07;;;;;;;45.80;28.27;;;;;;;3.59;63.71;100658.78;5016310;28;20113;-60
2021/03/08 08:46:42;;;;;;;46.35;27.58;;;;;;;3.60;63.51;100658.88;5015932;28;20030;-60
2021/03/08 08:49:13;;;;;;;43.45;26.60;;;;;;;3.62;63.53;100654.72;5014649;28;20092;-60
2021/03/08 08:51:58;;;;;;;46.70;28.23;;;;;;;3.64;63.78;100660.81;5014750;28;20041;-60
2021/03/08 08:54:26;;;;;;;45.75;27.88;;;;;;;3.66;63.84;100651.50;5014545;28;20049;-60
2021/03/08 08:57:06;;;;;;;48.45;29.55;;;;;;;3.68;63.69;100643.00;5014318;28;20041;-60
2021/03/08 08:59:34;;;;;;;45.05;27.48;;;;;;;3.69;63.58;100645.69;4998080;28;20053;-60
2021/03/08 09:02:23;;;;;;;47.67;30.40;;;;;;;3.71;63.49;100645.75;5014165;28;20485;-61
2021/03/08 09:04:49;;;;;;;44.47;26.92;;;;;;;3.73;63.36;100645.06;5014523;28;20068;-60
2021/03/08 09:07:29;;;;;;;43.30;27.48;;;;;;;3.76;63.51;100647.75;5015222;28;20042;-60
2021/03/08 09:09:57;;;;;;;46.13;26.98;;;;;;;3.79;64.17;100641.94;5015533;28;20066;-60
2021/03/08 09:12:33;;;;;;;42.63;28.02;;;;;;;3.80;63.72;100638.56;5015262;28;20125;-60
2021/03/08 09:15:08;;;;;;;47.25;29.08;;;;;;;3.81;63.67;100642.88;5014358;28;20042;-60
2021/03/08 09:17:39;;;;;;;45.70;28.88;;;;;;;3.82;63.79;100642.06;5013592;28;20460;-60
2021/03/08 09:20:06;;;;;;;45.63;28.38;;;;;;;3.85;64.04;100651.63;5015282;28;20524;-60
2021/03/08 09:23:02;;;;;;;42.33;27.70;;;;;;;3.86;63.95;100643.13;5013757;28;20513;-60
2021/03/08 09:25:29;;;;;;;47.83;29.02;;;;;;;3.88;63.49;100644.97;5013229;28;20096;-60
2021/03/08 09:28:01;;;;;;;48.80;27.80;;;;;;;3.89;64.20;100649.28;5015188;28;20041;-60
2021/03/08 09:30:42;;;;;;;42.63;27.40;;;;;;;3.92;63.56;100646.00;5015142;28;20037;-60
2021/03/08 09:33:18;;;;;;;47.55;29.20;;;;;;;3.95;63.66;100646.16;5015074;28;20116;-60
2021/03/08 09:35:51;;;;;;;47.67;29.85;;;;;;;3.97;63.66;100649.69;5013718;28;20096;-61
2021/03/08 09:38:21;;;;;;;44.00;27.48;;;;;;;3.99;63.83;100647.19;5013486;28;20048;-60
2021/03/08 09:40:53;;;;;;;48.60;28.80;;;;;;;4.00;63.52;100642.16;5014703;28;20385;-60
2021/03/08 09:43:28;;;;;;;41.10;26.73;;;;;;;4.02;64.20;100647.34;5014852;28;20113;-60
2021/03/08 09:46:05;;;;;;;44.03;27.42;;;;;;;4.04;63.52;100654.34;5013504;28;20057;-61
2021/03/08 09:48:36;;;;;;;43.10;27.20;;;;;;;4.07;64.06;100643.38;5014919;28;20069;-60
2021/03/08 09:51:11;;;;;;;42.30;25.60;;;;;;;4.07;63.47;100649.34;5014704;28;20033;-60
2021/03/08 09:53:44;;;;;;;44.45;28.45;;;;;;;4.09;63.63;100642.63;5014848;28;20034;-60
2021/03/08 09:56:14;;;;;;;44.88;27.65;;;;;;;4.11;63.97;100651.28;5014640;28;20481;-61
2021/03/08 09:58:45;;;;;;;42.58;27.15;;;;;;;4.13;63.61;100651.34;5014410;28;20037;-61
2021/03/08 10:01:19;;;;;;;42.28;26.85;;;;;;;4.14;63.63;100649.69;5014492;28;20065;-61
2021/03/08 10:03:46;;;;;;;42.03;27.25;;;;;;;4.16;63.86;100656.66;5014914;28;20050;-61
2021/03/08 10:06:30;;;;;;;38.65;25.38;;;;;;;4.18;63.39;100656.75;5013337;28;20034;-60
2021/03/08 10:08:57;;;;;;;40.05;25.95;;;;;;;4.19;64.02;100644.00;5014378;28;20091;-61
2021/03/08 10:11:35;;;;;;;40.85;27.60;;;;;;;4.19;63.52;100650.81;5013142;28;20109;-61
2021/03/08 10:14:03;;;;;;;45.00;27.17;;;;;;;4.20;63.79;100650.88;5014412;28;20038;-60
2021/03/08 10:16:31;;;;;;;40.55;26.67;;;;;;;4.22;63.56;100651.84;5014331;28;20056;-61
2021/03/08 10:19:08;;;;;;;41.15;24.73;;;;;;;4.23;63.81;100645.03;4997046;28;20128;-61
2021/03/08 10:21:45;;;;;;;40.10;26.50;;;;;;;4.23;63.90;100650.16;5013070;28;20065;-61
2021/03/08 10:24:35;;;;;;;39.40;25.42;;;;;;;4.26;63.69;100655.44;5014192;28;20038;-60
2021/03/08 10:27:10;;;;;;;40.05;27.10;;;;;;;4.28;63.44;100653.84;5013033;28;20036;-61
2021/03/08 10:29:38;;;;;;;39.05;25.40;;;;;;;4.28;63.56;100656.41;5013023;28;20104;-61
2021/03/08 10:32:06;;;;;;;39.90;24.88;;;;;;;4.30;63.49;100659.03;5012729;28;20034;-61
2021/03/08 10:34:35;;;;;;;37.67;25.70;;;;;;;4.29;63.78;100652.16;5013183;28;20030;-61
2021/03/08 10:37:01;;;;;;;41.05;26.13;;;;;;;4.31;63.63;100658.25;5013067;28;20405;-61
2021/03/08 10:39:35;;;;;;;40.78;26.20;;;;;;;4.32;63.70;100653.22;5012497;28;20030;-61
2021/03/08 10:42:06;;;;;;;40.28;25.50;;;;;;;4.33;63.67;100648.94;5013959;28;20030;-60
2021/03/08 10:44:32;;;;;;;39.72;25.23;;;;;;;4.34;63.20;100655.84;5013813;28;20034;-61
2021/03/08 10:46:58;;;;;;;40.88;25.90;;;;;;;4.36;63.85;100655.09;5012636;28;20125;-60
2021/03/08 10:49:24;;;;;;;44.38;26.08;;;;;;;4.37;63.75;100656.88;5013574;28;20037;-61
2021/03/08 10:51:55;;;;;;;40.17;24.83;;;;;;;4.37;63.69;100658.56;5013777;28;20038;-61
2021/03/08 10:54:26;;;;;;;40.50;25.25;;;;;;;4.38;63.92;100657.78;4996088;28;20030;-61
2021/03/08 10:56:59;;;;;;;38.05;24.48;;;;;;;4.38;63.54;100660.34;5014089;28;20045;-61
2021/03/08 10:59:31;;;;;;;38.43;24.10;;;;;;;4.39;63.37;100662.09;5012457;28;20172;-61
2021/03/08 11:02:09;;;;;;;36.28;24.23;;;;;;;4.38;63.49;100663.78;5012008;28;20034;-60
2021/03/08 11:04:36;;;;;;;41.17;24.58;;;;;;;4.40;63.49;100651.03;5012599;28;20037;-61
2021/03/08 11:07:02;;;;;;;42.22;23.80;;;;;;;4.38;63.69;100645.81;5013576;28;20056;-61
2021/03/08 11:09:29;;;;;;;36.38;25.08;;;;;;;4.40;63.46;100651.03;5012462;28;20044;-60
2021/03/08 11:12:01;;;;;;;32.92;22.85;;;;;;;4.40;63.64;100643.34;5012424;28;20038;-61
2021/03/08 11:14:27;;;;;;;40.50;25.17;;;;;;;4.41;63.61;100645.97;5013345;28;20048;-61
2021/03/08 11:16:55;;;;;;;46.13;25.90;;;;;;;4.41;63.80;100643.41;5012444;28;20041;-61
2021/03/08 11:19:29;;;;;;;38.65;25.17;;;;;;;4.43;64.18;100638.34;5012019;28;20026;-61
2021/03/08 11:22:10;;;;;;;40.22;25.95;;;;;;;4.42;63.25;100636.59;4996084;28;20100;-61
2021/03/08 11:24:48;;;;;;;40.72;24.98;;;;;;;4.44;63.75;100640.09;5012135;28;20509;-60
2021/03/08 11:27:27;;;;;;;38.80;26.02;;;;;;;4.47;64.21;100637.69;5013289;28;20057;-61
2021/03/08 11:30:11;;;;;;;39.67;24.38;;;;;;;4.49;63.87;100637.78;5013659;28;20050;-60
2021/03/08 11:32:43;;;;;;;41.00;24.23;;;;;;;4.50;63.50;100634.41;5012442;28;20549;-61
2021/03/08 11:35:33;;;;;;;41.38;25.40;;;;;;;4.49;63.98;100633.50;5014034;28;20125;-61
2021/03/08 11:38:10;;;;;;;41.95;27.50;;;;;;;4.49;63.41;100623.25;5017277;28;20025;-61
2021/03/08 11:40:41;;;;;;;39.92;25.15;;;;;;;4.50;63.70;100629.28;4999305;28;20041;-60
2021/03/08 11:43:10;;;;;;;38.45;24.38;;;;;;;4.51;63.75;100626.78;5016977;28;20116;-61
2021/03/08 11:45:38;;;;;;;41.40;25.02;;;;;;;4.52;63.56;100618.28;5016025;28;20049;-61
2021/03/08 11:48:08;;;;;;;40.33;25.40;;;;;;;4.52;63.72;100628.53;5015499;28;20069;-60